Time;durP1;ratioP1;P1;durP2;ratioP2;P2;SDS_P1;SDS_P2;PMS_P1;PMS_P2;Temp;Humidity;BMP_temperature;BMP_pressure;BME280_temperature;BME280_humidity;BME280_pressure;Samples;Min_cycle;Max_cycle;Signal;HPM_P1;HPM_P2
2022/10/30 00:00:48;;;;;;;11.50;10.30;;;13.10;99.90;;;;;;4955382;28;20201;-82
2022/10/30 00:03:17;;;;;;;11.47;9.80;;;13.10;99.90;;;;;;4966623;28;20213;-82
2022/10/30 00:05:45;;;;;;;9.93;8.93;;;13.20;99.90;;;;;;4954756;28;20663;-82
2022/10/30 00:08:14;;;;;;;11.27;10.10;;;13.20;99.90;;;;;;4951524;28;20210;-83
2022/10/30 00:10:41;;;;;;;11.70;10.20;;;13.20;99.90;;;;;;4951564;28;20217;-82
2022/10/30 00:13:10;;;;;;;8.87;6.13;;;13.20;99.90;;;;;;4969926;28;20194;-82
2022/10/30 00:15:37;;;;;;;12.33;11.23;;;13.20;99.90;;;;;;4959329;28;20218;-82
2022/10/30 00:18:04;;;;;;;10.50;6.37;;;13.20;99.90;;;;;;4960401;28;20237;-82
2022/10/30 00:20:31;;;;;;;9.87;8.97;;;13.20;99.90;;;;;;4955813;28;20636;-82
2022/10/30 00:22:58;;;;;;;11.87;10.87;;;13.10;99.90;;;;;;4959888;28;20202;-82
2022/10/30 00:25:24;;;;;;;7.80;7.00;;;13.10;99.90;;;;;;4972901;28;20210;-82
2022/10/30 00:27:51;;;;;;;7.80;7.10;;;13.10;99.90;;;;;;4955792;28;20659;-82
2022/10/30 00:30:20;;;;;;;8.13;6.77;;;13.20;99.90;;;;;;4955910;28;20219;-82
2022/10/30 00:32:47;;;;;;;7.73;6.93;;;13.20;99.90;;;;;;4962527;28;20198;-81
2022/10/30 00:35:14;;;;;;;7.73;6.27;;;13.20;99.90;;;;;;4973191;28;20218;-82
2022/10/30 00:37:41;;;;;;;9.43;6.90;;;13.20;99.90;;;;;;4959594;28;20221;-82
2022/10/30 00:40:14;;;;;;;9.37;7.10;;;13.20;99.90;;;;;;4955504;28;20249;-82
2022/10/30 00:42:41;;;;;;;9.60;7.73;;;13.20;99.90;;;;;;4960547;28;20249;-82
2022/10/30 00:45:12;;;;;;;9.57;6.87;;;13.20;99.90;;;;;;4977915;28;20214;-82
2022/10/30 00:47:43;;;;;;;12.60;7.77;;;13.10;99.90;;;;;;4958422;28;20202;-82
2022/10/30 00:50:15;;;;;;;12.43;10.33;;;13.10;99.90;;;;;;4960258;28;20221;-83
2022/10/30 00:52:48;;;;;;;12.73;8.10;;;13.10;99.90;;;;;;4957463;28;20195;-82
2022/10/30 00:55:19;;;;;;;9.40;7.20;;;13.10;99.90;;;;;;4976530;28;20860;-82
2022/10/30 00:57:49;;;;;;;9.73;8.07;;;13.10;99.90;;;;;;4959066;28;20559;-82
2022/10/30 01:00:19;;;;;;;8.80;7.30;;;13.10;99.90;;;;;;4954406;28;20222;-83
2022/10/30 01:02:50;;;;;;;10.13;7.40;;;13.20;99.90;;;;;;4955452;28;20288;-82
2022/10/30 01:05:19;;;;;;;8.07;7.07;;;13.20;99.90;;;;;;4954633;28;20199;-82
2022/10/30 01:07:47;;;;;;;9.33;7.57;;;13.10;99.90;;;;;;4958525;28;20615;-82
2022/10/30 01:10:14;;;;;;;10.53;7.70;;;13.10;99.90;;;;;;4972058;28;20225;-82
2022/10/30 01:12:43;;;;;;;9.03;7.50;;;13.00;99.90;;;;;;4972141;28;20202;-82
2022/10/30 01:15:11;;;;;;;9.13;7.27;;;13.00;99.90;;;;;;4959059;28;20309;-82
2022/10/30 01:18:12;;;;;;;12.17;9.33;;;13.00;99.90;;;;;;4973802;28;20198;-82
2022/10/30 01:21:10;;;;;;;11.97;10.97;;;12.90;99.90;;;;;;4969515;28;20205;-82
2022/10/30 01:23:45;;;;;;;7.77;5.67;;;12.80;99.90;;;;;;4973312;28;20277;-83
2022/10/30 01:26:20;;;;;;;10.43;9.30;;;12.80;99.90;;;;;;4956915;28;20204;-81
2022/10/30 01:29:09;;;;;;;11.73;7.83;;;12.70;99.90;;;;;;4953258;28;20268;-83
2022/10/30 01:31:58;;;;;;;14.07;12.63;;;12.70;99.90;;;;;;4955089;28;20208;-82
2022/10/30 01:34:37;;;;;;;11.77;6.83;;;12.60;99.90;;;;;;4954683;28;20214;-82
2022/10/30 01:37:10;;;;;;;9.50;6.77;;;12.60;99.90;;;;;;4954492;28;20205;-82
2022/10/30 01:39:39;;;;;;;13.00;11.80;;;12.60;99.90;;;;;;4954053;28;20707;-82
2022/10/30 01:42:10;;;;;;;10.50;8.33;;;12.60;99.90;;;;;;4959894;28;20629;-81
2022/10/30 01:44:37;;;;;;;12.13;7.03;;;12.50;99.90;;;;;;4954123;28;20186;-82
2022/10/30 01:47:17;;;;;;;10.53;8.33;;;12.60;99.90;;;;;;4971670;28;20190;-82
2022/10/30 01:50:17;;;;;;;8.70;6.80;;;12.60;99.90;;;;;;4972658;28;20232;-82
2022/10/30 01:52:55;;;;;;;8.03;5.67;;;12.50;99.90;;;;;;4952672;28;20723;-82
2022/10/30 01:55:34;;;;;;;9.77;5.90;;;12.50;99.90;;;;;;4971387;28;20224;-81
2022/10/30 01:58:08;;;;;;;11.50;7.10;;;12.50;99.90;;;;;;4954216;28;20201;-82
2022/10/30 02:00:39;;;;;;;10.70;6.80;;;12.40;99.90;;;;;;4956961;28;20197;-82
2022/10/30 02:03:06;;;;;;;9.60;5.83;;;12.40;99.90;;;;;;4958956;28;20698;-82
2022/10/30 02:05:40;;;;;;;15.83;6.33;;;12.30;99.90;;;;;;4954734;28;20214;-82
2022/10/30 02:08:07;;;;;;;11.77;6.53;;;12.30;99.90;;;;;;4959116;28;20208;-82
2022/10/30 02:10:38;;;;;;;13.47;11.97;;;12.20;99.90;;;;;;4955511;28;20221;-82
2022/10/30 02:13:05;;;;;;;9.27;5.80;;;12.20;99.90;;;;;;4953834;28;20693;-83
2022/10/30 02:15:33;;;;;;;11.43;6.67;;;12.20;99.90;;;;;;4953999;28;20208;-82
2022/10/30 02:18:00;;;;;;;16.40;12.17;;;12.20;99.90;;;;;;4953880;28;20222;-82
2022/10/30 02:20:28;;;;;;;13.23;11.77;;;12.10;99.90;;;;;;4950285;29;20206;-81
2022/10/30 02:22:56;;;;;;;12.67;11.43;;;12.10;99.90;;;;;;4953715;28;20213;-82
2022/10/30 02:25:22;;;;;;;13.23;12.00;;;12.10;99.90;;;;;;4958288;28;20309;-82
2022/10/30 02:27:49;;;;;;;12.63;11.57;;;12.20;99.90;;;;;;4951422;28;20245;-82
2022/10/30 02:30:16;;;;;;;11.90;10.80;;;12.10;99.90;;;;;;4953031;28;20225;-82
2022/10/30 02:32:43;;;;;;;12.27;11.27;;;12.10;99.90;;;;;;4967919;28;20203;-82
2022/10/30 02:35:10;;;;;;;12.93;11.80;;;12.20;99.90;;;;;;4953240;28;20260;-82
2022/10/30 02:37:39;;;;;;;12.70;11.43;;;12.20;99.90;;;;;;4956609;28;20208;-82
2022/10/30 02:40:08;;;;;;;11.27;10.37;;;12.20;99.90;;;;;;4960481;28;20214;-82
2022/10/30 02:42:34;;;;;;;11.53;10.63;;;12.20;99.90;;;;;;4954447;28;20261;-82
2022/10/30 02:45:01;;;;;;;12.60;11.37;;;12.30;99.90;;;;;;4957589;28;20688;-82
2022/10/30 02:47:28;;;;;;;11.60;10.50;;;12.20;99.90;;;;;;4953591;28;20215;-82
2022/10/30 02:49:55;;;;;;;12.30;11.00;;;12.20;99.90;;;;;;4952428;28;20605;-82
2022/10/30 02:52:22;;;;;;;9.30;5.53;;;12.20;99.90;;;;;;4952266;28;20198;-82
2022/10/30 02:54:50;;;;;;;7.67;5.50;;;12.30;99.90;;;;;;4973455;28;20222;-82
2022/10/30 02:57:17;;;;;;;9.70;5.37;;;12.30;99.90;;;;;;4952356;28;20201;-82
2022/10/30 02:59:44;;;;;;;8.77;5.70;;;12.30;99.90;;;;;;4954428;28;20236;-82
2022/10/30 03:02:11;;;;;;;6.83;5.23;;;12.30;99.90;;;;;;4957484;28;20208;-82
2022/10/30 03:04:38;;;;;;;7.33;5.10;;;12.30;99.90;;;;;;4953893;28;20227;-83
2022/10/30 03:07:05;;;;;;;7.40;5.67;;;12.30;99.90;;;;;;4952819;28;20195;-82
2022/10/30 03:09:32;;;;;;;10.17;5.40;;;12.30;99.90;;;;;;4952123;28;20227;-81
2022/10/30 03:12:00;;;;;;;8.20;5.00;;;12.30;99.90;;;;;;4955963;28;20197;-82
2022/10/30 03:14:27;;;;;;;6.00;5.00;;;12.30;99.90;;;;;;4949109;29;20200;-82
2022/10/30 03:16:54;;;;;;;11.87;5.50;;;12.30;99.90;;;;;;4966673;28;20200;-82
2022/10/30 03:19:21;;;;;;;11.63;5.90;;;12.40;99.90;;;;;;4957568;28;20226;-82
2022/10/30 03:21:48;;;;;;;6.80;5.23;;;12.30;99.90;;;;;;4954837;28;20200;-82
2022/10/30 03:24:15;;;;;;;13.07;6.57;;;12.30;99.90;;;;;;4952018;28;20290;-82
2022/10/30 03:26:42;;;;;;;7.87;5.67;;;12.20;99.90;;;;;;4953099;28;20193;-81
2022/10/30 03:29:10;;;;;;;8.20;5.80;;;12.20;99.90;;;;;;4956490;28;20238;-83
2022/10/30 03:31:37;;;;;;;7.23;5.70;;;12.20;99.90;;;;;;4952370;28;20206;-82
2022/10/30 03:34:12;;;;;;;9.23;8.33;;;12.20;99.90;;;;;;4952368;28;20731;-82
2022/10/30 03:36:41;;;;;;;12.50;11.40;;;12.20;99.90;;;;;;4950454;28;20701;-82
2022/10/30 03:39:08;;;;;;;12.97;11.60;;;12.10;99.90;;;;;;4956487;28;20224;-82
2022/10/30 03:41:36;;;;;;;12.60;11.40;;;12.10;99.90;;;;;;4953472;28;20745;-82
2022/10/30 03:44:03;;;;;;;13.03;11.70;;;12.00;99.90;;;;;;4956137;28;20209;-82
2022/10/30 03:46:31;;;;;;;13.10;11.70;;;12.00;99.90;;;;;;4952043;28;20204;-82
2022/10/30 03:49:11;;;;;;;18.30;12.10;;;12.00;99.90;;;;;;4951694;28;20305;-83
2022/10/30 03:51:38;;;;;;;12.40;11.30;;;12.00;99.90;;;;;;4955163;28;20196;-81
2022/10/30 03:54:06;;;;;;;12.60;11.30;;;12.00;99.90;;;;;;4957105;28;20195;-82
2022/10/30 03:56:33;;;;;;;12.67;11.57;;;11.90;99.90;;;;;;4953069;28;20229;-82
2022/10/30 03:59:01;;;;;;;12.93;11.80;;;11.90;99.90;;;;;;4956268;28;20251;-81
2022/10/30 04:01:30;;;;;;;12.97;11.87;;;12.00;99.90;;;;;;4952067;28;20196;-82
2022/10/30 04:03:57;;;;;;;12.47;11.47;;;12.00;99.90;;;;;;4966993;28;20221;-82
2022/10/30 04:06:25;;;;;;;12.73;11.73;;;12.00;99.90;;;;;;4951987;28;20226;-82
2022/10/30 04:08:54;;;;;;;12.97;11.67;;;12.00;99.90;;;;;;4953643;29;20243;-82
2022/10/30 04:11:21;;;;;;;14.10;12.60;;;11.90;99.90;;;;;;4956201;28;20204;-82
2022/10/30 04:13:48;;;;;;;16.13;12.67;;;11.90;99.90;;;;;;4954833;28;20192;-81
2022/10/30 04:16:15;;;;;;;12.47;11.47;;;11.80;99.90;;;;;;4943895;28;20312;-82
2022/10/30 04:18:45;;;;;;;13.10;11.70;;;11.70;99.90;;;;;;4956473;28;20224;-82
2022/10/30 04:21:12;;;;;;;13.03;11.73;;;11.70;99.90;;;;;;4946888;28;20208;-82
2022/10/30 04:23:39;;;;;;;14.80;13.23;;;11.70;99.90;;;;;;4952001;28;20558;-82
2022/10/30 04:26:06;;;;;;;13.23;12.00;;;11.60;99.90;;;;;;4951097;28;20224;-81
2022/10/30 04:28:35;;;;;;;13.03;11.87;;;11.60;99.90;;;;;;4955759;28;20225;-82
2022/10/30 04:31:04;;;;;;;13.30;12.10;;;11.50;99.90;;;;;;4958633;28;20306;-81
2022/10/30 04:33:31;;;;;;;13.03;11.80;;;11.50;99.90;;;;;;4951602;28;20199;-82
2022/10/30 04:36:00;;;;;;;13.47;12.20;;;11.50;99.90;;;;;;4950263;28;20217;-82
2022/10/30 04:38:27;;;;;;;13.50;12.07;;;11.50;99.90;;;;;;4950544;28;20223;-82
2022/10/30 04:40:56;;;;;;;12.87;11.70;;;11.50;99.90;;;;;;4955330;28;20582;-80
2022/10/30 04:43:26;;;;;;;13.23;12.03;;;11.40;99.90;;;;;;4954224;28;20203;-80
2022/10/30 04:45:53;;;;;;;12.83;11.83;;;11.50;99.90;;;;;;4957896;28;20202;-81
2022/10/30 04:48:20;;;;;;;11.90;10.87;;;11.40;99.90;;;;;;4958973;28;20225;-80
2022/10/30 04:50:47;;;;;;;12.17;11.10;;;11.40;99.90;;;;;;4956699;28;20267;-81
2022/10/30 04:53:24;;;;;;;12.00;11.03;;;11.40;99.90;;;;;;4972517;28;20206;-79
2022/10/30 04:55:57;;;;;;;12.80;11.80;;;11.40;99.90;;;;;;4954070;28;20273;-80
2022/10/30 04:58:24;;;;;;;12.43;11.43;;;11.40;99.90;;;;;;4972687;28;20246;-81
2022/10/30 05:01:01;;;;;;;13.37;12.17;;;11.40;99.90;;;;;;4957227;28;20207;-81
2022/10/30 05:03:29;;;;;;;13.00;11.80;;;11.40;99.90;;;;;;4974865;28;20246;-80
2022/10/30 05:05:59;;;;;;;14.13;12.60;;;11.30;99.90;;;;;;4959644;28;20230;-80
2022/10/30 05:08:27;;;;;;;12.07;10.97;;;11.30;99.90;;;;;;4951557;28;20333;-81
2022/10/30 05:10:55;;;;;;;13.03;11.93;;;11.20;99.90;;;;;;4960818;28;20673;-83
2022/10/30 05:13:22;;;;;;;13.10;11.90;;;11.20;99.90;;;;;;4955289;28;20294;-82
2022/10/30 05:15:49;;;;;;;13.37;12.27;;;11.20;99.90;;;;;;4954599;28;20218;-82
2022/10/30 05:18:16;;;;;;;12.60;11.50;;;11.10;99.90;;;;;;4972219;28;20209;-80
2022/10/30 05:20:46;;;;;;;13.00;11.80;;;11.20;99.90;;;;;;4970158;28;20250;-80
2022/10/30 05:23:13;;;;;;;13.93;12.67;;;11.10;99.90;;;;;;4972477;28;20209;-80
2022/10/30 05:25:42;;;;;;;13.27;12.17;;;11.10;99.90;;;;;;4954844;28;20727;-80
2022/10/30 05:28:11;;;;;;;13.53;12.13;;;11.10;99.90;;;;;;4947186;28;20192;-80
2022/10/30 05:30:44;;;;;;;16.23;12.60;;;11.00;99.90;;;;;;4947436;28;20200;-80
2022/10/30 05:33:25;;;;;;;16.07;12.60;;;10.90;99.90;;;;;;4975638;28;20194;-80
2022/10/30 05:35:52;;;;;;;13.20;12.10;;;11.00;99.90;;;;;;4955750;28;20219;-79
2022/10/30 05:38:19;;;;;;;13.27;12.07;;;10.90;99.90;;;;;;4969484;28;20225;-80
2022/10/30 05:40:47;;;;;;;12.87;11.77;;;10.90;99.90;;;;;;4954165;28;20281;-80
2022/10/30 05:43:15;;;;;;;13.77;12.20;;;10.80;99.90;;;;;;4956796;28;20206;-80
2022/10/30 05:45:43;;;;;;;13.83;12.40;;;10.80;99.90;;;;;;4966085;28;20277;-80
2022/10/30 05:48:10;;;;;;;13.13;11.93;;;10.70;99.90;;;;;;4945359;28;20235;-82
2022/10/30 05:50:43;;;;;;;13.23;12.03;;;10.70;99.90;;;;;;4952771;28;20209;-81
2022/10/30 05:53:25;;;;;;;13.43;12.23;;;10.60;99.90;;;;;;4952950;28;20625;-81
2022/10/30 05:55:58;;;;;;;13.50;12.13;;;10.60;99.90;;;;;;4953657;28;20210;-81
2022/10/30 05:58:30;;;;;;;14.10;12.63;;;10.60;99.90;;;;;;4954045;28;20225;-83
2022/10/30 06:01:04;;;;;;;15.93;12.03;;;10.50;99.90;;;;;;4953800;29;20203;-82
2022/10/30 06:03:40;;;;;;;13.40;12.00;;;10.50;99.90;;;;;;4956020;28;20199;-83
2022/10/30 06:06:08;;;;;;;13.57;12.20;;;10.50;99.90;;;;;;4974771;28;20190;-82
2022/10/30 06:08:35;;;;;;;13.83;12.47;;;10.40;99.90;;;;;;4976467;28;20583;-80
2022/10/30 06:11:15;;;;;;;14.47;13.00;;;10.50;99.90;;;;;;4966810;28;21163;-80
2022/10/30 06:13:44;;;;;;;13.47;12.13;;;10.50;99.90;;;;;;4963813;28;20202;-80
2022/10/30 06:16:12;;;;;;;14.17;12.23;;;10.60;99.90;;;;;;4974940;28;20232;-79
2022/10/30 06:18:58;;;;;;;12.77;11.73;;;10.60;99.90;;;;;;4971699;28;20225;-78
2022/10/30 06:21:26;;;;;;;13.30;12.10;;;10.60;99.90;;;;;;4956244;28;20224;-79
2022/10/30 06:24:14;;;;;;;13.83;12.40;;;10.60;99.90;;;;;;4975853;28;20205;-80
2022/10/30 06:27:05;;;;;;;13.83;12.63;;;10.60;99.90;;;;;;4966413;28;20214;-82
2022/10/30 06:29:32;;;;;;;12.80;11.70;;;10.60;99.90;;;;;;4954562;28;20226;-85
2022/10/30 06:32:00;;;;;;;13.20;11.87;;;10.70;99.90;;;;;;4979044;28;20196;-89
2022/10/30 06:34:26;;;;;;;13.70;12.43;;;10.70;99.90;;;;;;4966444;28;20281;-88
2022/10/30 06:36:53;;;;;;;12.97;11.77;;;10.80;99.90;;;;;;4959472;28;20213;-85
2022/10/30 06:39:20;;;;;;;12.93;11.73;;;10.90;99.90;;;;;;4953301;28;20226;-81
2022/10/30 06:42:06;;;;;;;12.50;11.40;;;11.00;99.90;;;;;;4956163;28;20247;-81
2022/10/30 06:44:49;;;;;;;13.93;12.67;;;11.10;99.90;;;;;;4957299;28;20605;-82
2022/10/30 06:47:15;;;;;;;13.93;12.73;;;11.30;99.90;;;;;;4948639;28;20292;-84
2022/10/30 06:49:45;;;;;;;13.63;12.40;;;11.40;99.90;;;;;;4948176;28;20283;-87
2022/10/30 06:52:12;;;;;;;12.97;11.70;;;11.50;99.90;;;;;;4955922;28;20207;-87
2022/10/30 06:54:39;;;;;;;12.37;11.40;;;11.60;99.90;;;;;;4952798;28;20291;-85
2022/10/30 06:57:27;;;;;;;12.50;11.40;;;11.80;99.90;;;;;;4978726;28;20296;-86
2022/10/30 07:00:12;;;;;;;12.83;11.73;;;12.00;99.90;;;;;;4946873;28;20228;-79
2022/10/30 07:02:59;;;;;;;12.83;11.77;;;12.10;99.90;;;;;;4975851;28;20688;-82
2022/10/30 07:05:26;;;;;;;12.40;11.30;;;12.30;99.90;;;;;;4945254;28;20256;-81
2022/10/30 07:07:55;;;;;;;12.50;11.30;;;12.40;99.90;;;;;;4954843;28;20286;-81
2022/10/30 07:10:23;;;;;;;12.00;11.10;;;12.50;99.90;;;;;;4958112;28;20207;-81
2022/10/30 07:13:30;;;;;;;12.07;11.17;;;12.60;99.90;;;;;;4897174;29;20271;-82
2022/10/30 07:16:05;;;;;;;10.23;9.33;;;12.80;99.90;;;;;;4881901;29;20211;-82
2022/10/30 07:18:36;;;;;;;11.10;10.27;;;13.00;99.90;;;;;;4921928;28;20218;-82
2022/10/30 07:21:03;;;;;;;13.10;12.00;;;13.20;99.90;;;;;;4950376;28;20202;-81
2022/10/30 07:23:31;;;;;;;11.73;10.53;;;13.40;99.90;;;;;;4949870;28;20205;-82
2022/10/30 07:26:18;;;;;;;12.83;11.70;;;13.60;99.90;;;;;;4950760;28;20221;-81
2022/10/30 07:28:48;;;;;;;10.47;9.57;;;13.70;99.90;;;;;;4953809;28;20713;-80
2022/10/30 07:31:25;;;;;;;10.23;9.33;;;13.90;99.90;;;;;;4949481;28;20558;-80
2022/10/30 07:33:52;;;;;;;11.40;10.50;;;14.10;99.90;;;;;;4968900;28;20204;-81
2022/10/30 07:36:34;;;;;;;9.50;8.80;;;14.20;99.90;;;;;;4956398;28;20220;-81
2022/10/30 07:39:04;;;;;;;10.83;9.90;;;14.40;99.90;;;;;;4957052;28;20219;-81
2022/10/30 07:41:51;;;;;;;11.30;10.40;;;14.50;99.90;;;;;;4974178;28;20201;-82
2022/10/30 07:44:54;;;;;;;8.27;7.50;;;14.70;99.90;;;;;;4908352;29;20218;-82
2022/10/30 07:47:40;;;;;;;11.10;9.80;;;14.90;99.90;;;;;;4962141;28;20229;-81
2022/10/30 07:50:26;;;;;;;10.93;8.60;;;15.10;99.90;;;;;;4966993;28;20201;-82
2022/10/30 07:52:53;;;;;;;10.13;8.77;;;15.20;99.90;;;;;;4954132;28;20201;-81
2022/10/30 07:55:24;;;;;;;10.23;9.43;;;15.30;99.90;;;;;;4952045;28;20197;-81
2022/10/30 07:57:51;;;;;;;8.27;7.37;;;15.50;99.90;;;;;;4965126;28;20236;-82
2022/10/30 08:00:51;;;;;;;10.43;5.30;;;15.60;99.90;;;;;;4965212;28;20211;-82
2022/10/30 08:03:27;;;;;;;7.70;4.23;;;15.70;99.90;;;;;;4967997;28;20203;-82
2022/10/30 08:06:10;;;;;;;6.67;4.77;;;15.70;99.90;;;;;;4972643;28;20201;-81
2022/10/30 08:08:38;;;;;;;6.90;4.20;;;15.90;99.90;;;;;;4951949;28;20244;-80
2022/10/30 08:11:20;;;;;;;8.30;4.90;;;16.00;99.90;;;;;;4948126;28;20857;-81
2022/10/30 08:13:47;;;;;;;11.00;9.33;;;16.20;99.90;;;;;;4949765;28;20228;-82
2022/10/30 08:16:16;;;;;;;9.17;5.37;;;16.40;99.90;;;;;;4949966;28;20201;-83
2022/10/30 08:18:43;;;;;;;9.77;5.43;;;16.40;99.90;;;;;;4956852;28;20902;-83
2022/10/30 08:21:10;;;;;;;7.00;5.60;;;16.60;99.90;;;;;;4954021;28;20202;-77
2022/10/30 08:23:45;;;;;;;10.10;9.20;;;16.80;99.90;;;;;;4951383;28;20579;-78
2022/10/30 08:26:15;;;;;;;10.77;9.10;;;17.00;99.90;;;;;;4948412;28;20206;-78
2022/10/30 08:28:42;;;;;;;12.53;8.43;;;17.30;99.90;;;;;;4947085;28;20217;-78
2022/10/30 08:31:11;;;;;;;9.67;8.63;;;17.40;99.90;;;;;;4952611;28;20233;-79
2022/10/30 08:33:57;;;;;;;9.27;6.83;;;17.60;99.90;;;;;;4966232;28;20218;-78
2022/10/30 08:36:48;;;;;;;10.53;5.07;;;17.70;99.90;;;;;;4965762;28;20637;-78
2022/10/30 08:39:16;;;;;;;7.60;4.67;;;17.80;99.90;;;;;;4972737;28;20223;-78
2022/10/30 08:41:49;;;;;;;14.13;5.70;;;17.80;99.90;;;;;;4952204;28;20207;-78
2022/10/30 08:44:16;;;;;;;9.00;6.87;;;17.70;99.90;;;;;;4951924;28;20239;-78
2022/10/30 08:47:01;;;;;;;12.63;8.83;;;17.70;99.90;;;;;;4970533;28;20285;-79
2022/10/30 08:49:30;;;;;;;10.60;9.17;;;17.70;99.90;;;;;;4948694;29;20212;-78
2022/10/30 08:51:59;;;;;;;9.40;8.50;;;17.80;99.90;;;;;;4952538;29;20200;-78
2022/10/30 08:54:26;;;;;;;11.60;10.00;;;17.90;99.90;;;;;;4956581;28;20677;-78
2022/10/30 08:56:54;;;;;;;10.70;8.80;;;18.00;99.90;;;;;;4955738;28;20212;-79
2022/10/30 08:59:23;;;;;;;11.13;7.60;;;18.10;99.90;;;;;;4960537;28;20235;-78
2022/10/30 09:01:51;;;;;;;7.97;7.27;;;18.20;99.90;;;;;;4956330;28;20207;-79
2022/10/30 09:04:18;;;;;;;12.73;8.93;;;18.10;99.90;;;;;;4969385;28;20209;-79
2022/10/30 09:07:05;;;;;;;11.17;9.40;;;18.20;99.90;;;;;;4969407;28;20714;-78
2022/10/30 09:09:47;;;;;;;10.50;9.60;;;18.30;99.90;;;;;;4972179;28;20743;-78
2022/10/30 09:12:15;;;;;;;9.20;8.30;;;18.40;99.90;;;;;;4969238;28;20229;-79
2022/10/30 09:14:44;;;;;;;7.83;7.10;;;18.60;99.90;;;;;;4951862;28;20230;-78
2022/10/30 09:17:12;;;;;;;7.93;5.87;;;18.80;99.90;;;;;;4951857;28;20300;-78
2022/10/30 09:19:43;;;;;;;9.10;6.53;;;18.90;99.90;;;;;;4955899;28;20218;-78
2022/10/30 09:22:17;;;;;;;6.03;3.60;;;19.10;99.90;;;;;;4951694;28;20198;-78
2022/10/30 09:24:44;;;;;;;7.93;4.17;;;19.20;99.90;;;;;;4954010;28;20208;-79
2022/10/30 09:27:46;;;;;;;6.23;3.90;;;19.30;99.90;;;;;;4949193;28;20831;-78
2022/10/30 09:30:14;;;;;;;7.13;4.60;;;19.30;99.90;;;;;;4951253;28;20318;-79
2022/10/30 09:32:44;;;;;;;5.37;3.83;;;19.40;99.90;;;;;;4975594;28;20217;-79
2022/10/30 09:35:16;;;;;;;5.87;3.47;;;19.30;99.90;;;;;;4951524;28;20205;-79
2022/10/30 09:37:45;;;;;;;4.33;3.40;;;19.30;99.90;;;;;;4953711;29;20272;-79
2022/10/30 09:40:24;;;;;;;6.40;3.80;;;19.30;99.90;;;;;;4955435;28;20253;-78
2022/10/30 09:42:52;;;;;;;5.40;3.30;;;19.20;99.90;;;;;;4954500;28;20229;-79
2022/10/30 09:45:48;;;;;;;6.17;5.57;;;19.20;99.90;;;;;;4952502;28;20257;-79
2022/10/30 09:48:42;;;;;;;4.93;3.73;;;19.20;99.90;;;;;;4956190;28;20288;-79
2022/10/30 09:51:35;;;;;;;5.03;3.40;;;19.20;99.90;;;;;;4955209;28;20212;-79
2022/10/30 09:54:13;;;;;;;7.60;5.43;;;19.20;99.90;;;;;;4947718;28;20274;-79
2022/10/30 09:56:52;;;;;;;7.63;5.70;;;19.20;99.90;;;;;;4952879;28;20734;-79
2022/10/30 09:59:33;;;;;;;8.50;7.63;;;19.10;99.90;;;;;;4954905;28;20604;-78
2022/10/30 10:02:03;;;;;;;5.10;3.37;;;19.00;99.90;;;;;;4955744;28;20200;-78
2022/10/30 10:04:39;;;;;;;8.43;4.03;;;19.00;99.90;;;;;;4971462;28;20670;-79
2022/10/30 10:07:19;;;;;;;3.90;2.90;;;19.00;99.90;;;;;;4971965;28;20216;-79
2022/10/30 10:09:59;;;;;;;4.43;3.10;;;19.00;99.90;;;;;;4954123;28;20692;-79
2022/10/30 10:12:48;;;;;;;5.20;3.60;;;19.00;99.90;;;;;;4964503;28;20208;-79
2022/10/30 10:15:21;;;;;;;7.57;3.40;;;19.00;99.90;;;;;;4971341;28;20268;-79
2022/10/30 10:17:48;;;;;;;5.57;3.70;;;19.00;99.90;;;;;;4953398;28;20280;-79
2022/10/30 10:20:24;;;;;;;5.40;3.10;;;19.10;99.90;;;;;;4968616;28;20228;-78
2022/10/30 10:22:51;;;;;;;6.07;3.20;;;19.10;99.90;;;;;;4953893;28;20212;-79
2022/10/30 10:25:20;;;;;;;4.43;3.20;;;19.00;99.90;;;;;;4950558;28;20593;-79
2022/10/30 10:28:06;;;;;;;3.80;3.10;;;19.20;99.90;;;;;;4967539;28;20659;-79
2022/10/30 10:30:42;;;;;;;7.43;6.67;;;19.10;99.90;;;;;;4971855;28;20204;-79
2022/10/30 10:33:32;;;;;;;6.23;3.60;;;19.20;99.90;;;;;;4959626;28;20200;-79
2022/10/30 10:36:09;;;;;;;5.37;3.13;;;19.20;99.90;;;;;;4974556;28;20197;-79
2022/10/30 10:38:53;;;;;;;5.27;3.30;;;19.20;99.90;;;;;;4965061;28;20225;-79
2022/10/30 10:41:32;;;;;;;4.00;3.40;;;19.30;99.90;;;;;;4974855;28;20196;-79
2022/10/30 10:44:10;;;;;;;7.33;6.63;;;19.30;99.90;;;;;;4967830;28;20193;-79
2022/10/30 10:46:55;;;;;;;5.60;3.23;;;19.40;99.90;;;;;;4966920;28;20216;-79
2022/10/30 10:49:38;;;;;;;3.87;3.33;;;19.30;99.90;;;;;;4967622;28;20236;-78
2022/10/30 10:52:09;;;;;;;3.70;2.90;;;19.40;99.90;;;;;;4954399;28;20201;-78
2022/10/30 10:54:40;;;;;;;3.60;2.80;;;19.50;99.90;;;;;;4950034;28;20197;-79
2022/10/30 10:57:16;;;;;;;8.27;7.67;;;19.50;99.90;;;;;;4966125;28;20199;-79
2022/10/30 10:59:46;;;;;;;8.13;7.53;;;19.50;99.90;;;;;;4962480;28;20514;-79
2022/10/30 11:02:31;;;;;;;3.87;3.03;;;19.60;99.90;;;;;;4947621;28;20256;-79
2022/10/30 11:05:05;;;;;;;4.50;3.97;;;19.60;99.90;;;;;;4972447;28;20201;-79
2022/10/30 11:07:35;;;;;;;4.27;2.80;;;19.60;99.90;;;;;;4968146;28;20251;-79
2022/10/30 11:10:02;;;;;;;3.43;2.80;;;19.70;99.90;;;;;;4967260;28;20646;-79
2022/10/30 11:12:35;;;;;;;3.20;2.63;;;19.70;99.90;;;;;;4953728;28;20208;-79
2022/10/30 11:15:23;;;;;;;3.00;2.60;;;19.80;99.90;;;;;;4967254;28;20666;-79
2022/10/30 11:17:58;;;;;;;3.93;2.83;;;19.70;99.90;;;;;;4949656;28;20224;-79
2022/10/30 11:20:36;;;;;;;4.80;3.10;;;19.70;99.90;;;;;;4949926;28;20718;-79
2022/10/30 11:23:04;;;;;;;5.63;2.97;;;19.80;99.90;;;;;;4971657;28;20573;-79
2022/10/30 11:25:36;;;;;;;3.40;2.70;;;19.80;99.90;;;;;;4949574;28;20252;-79
2022/10/30 11:28:05;;;;;;;3.20;2.90;;;19.80;99.90;;;;;;4949309;28;20194;-79
2022/10/30 11:30:32;;;;;;;2.90;2.67;;;19.70;99.90;;;;;;4953184;28;20212;-79
2022/10/30 11:33:20;;;;;;;2.93;2.43;;;19.80;99.90;;;;;;4946443;29;20197;-79
2022/10/30 11:35:46;;;;;;;4.30;3.90;;;19.70;99.90;;;;;;4968710;28;20210;-79
2022/10/30 11:38:19;;;;;;;7.77;7.13;;;19.80;99.90;;;;;;4971404;28;20232;-79
2022/10/30 11:40:48;;;;;;;7.23;6.73;;;19.80;99.90;;;;;;4969090;28;20655;-79
2022/10/30 11:43:22;;;;;;;6.63;6.13;;;19.90;99.90;;;;;;4963982;28;20204;-79
2022/10/30 11:45:50;;;;;;;5.00;4.60;;;19.90;99.90;;;;;;4969640;28;20197;-79
2022/10/30 11:48:23;;;;;;;7.50;7.00;;;19.90;99.90;;;;;;4966802;28;20212;-79
2022/10/30 11:50:52;;;;;;;6.07;5.67;;;20.00;99.90;;;;;;4952774;28;20247;-79
2022/10/30 11:53:22;;;;;;;5.63;3.80;;;20.10;99.90;;;;;;4949327;28;20256;-79
2022/10/30 11:55:50;;;;;;;7.23;6.40;;;20.10;99.90;;;;;;4966362;28;20202;-79
2022/10/30 11:58:27;;;;;;;7.53;7.03;;;20.20;99.90;;;;;;4966318;28;20217;-79
2022/10/30 12:01:04;;;;;;;7.60;6.90;;;20.20;99.90;;;;;;4952989;28;20699;-79
2022/10/30 12:03:36;;;;;;;7.80;7.23;;;20.20;99.90;;;;;;4964349;28;20675;-79
2022/10/30 12:06:11;;;;;;;3.33;2.80;;;20.30;99.90;;;;;;4949061;28;20202;-79
2022/10/30 12:08:38;;;;;;;3.00;2.60;;;20.40;99.90;;;;;;4968057;28;20591;-79
2022/10/30 12:11:05;;;;;;;3.33;2.80;;;20.40;99.90;;;;;;4949840;28;20205;-79
2022/10/30 12:13:43;;;;;;;4.50;2.97;;;20.50;99.90;;;;;;4974033;28;20209;-79
2022/10/30 12:16:14;;;;;;;6.37;5.97;;;20.50;99.90;;;;;;4975133;28;20551;-79
2022/10/30 12:18:42;;;;;;;7.43;6.83;;;20.70;99.90;;;;;;4970268;28;20599;-79
2022/10/30 12:21:10;;;;;;;4.53;3.33;;;20.80;99.90;;;;;;4957171;28;20225;-79
2022/10/30 12:23:39;;;;;;;4.00;2.97;;;20.80;99.90;;;;;;4954312;28;20229;-79
2022/10/30 12:26:11;;;;;;;7.10;6.60;;;20.90;99.90;;;;;;4963535;28;20205;-79
2022/10/30 12:28:39;;;;;;;4.03;2.70;;;21.10;99.90;;;;;;4973855;28;20221;-79
2022/10/30 12:31:11;;;;;;;3.83;2.87;;;21.10;99.90;;;;;;4969353;28;20194;-78
2022/10/30 12:33:43;;;;;;;3.43;2.70;;;21.20;99.90;;;;;;4969883;28;20202;-79
2022/10/30 12:36:13;;;;;;;7.07;6.47;;;21.30;99.90;;;;;;4955912;28;20206;-79
2022/10/30 12:38:44;;;;;;;4.33;3.40;;;21.30;99.90;;;;;;4973193;28;20281;-79
2022/10/30 12:41:17;;;;;;;3.73;3.20;;;21.50;99.90;;;;;;4950297;28;20686;-79
2022/10/30 12:43:51;;;;;;;3.47;2.77;;;21.50;99.90;;;;;;4953351;28;20668;-79
2022/10/30 12:46:33;;;;;;;3.20;2.93;;;21.50;99.90;;;;;;4974206;28;20671;-79
2022/10/30 12:49:07;;;;;;;4.43;4.13;;;21.60;99.90;;;;;;4956668;28;20308;-79
2022/10/30 12:51:41;;;;;;;3.50;2.60;;;21.60;99.90;;;;;;4970818;28;20197;-79
2022/10/30 12:54:17;;;;;;;4.90;4.43;;;21.60;99.90;;;;;;4955977;28;20648;-78
2022/10/30 12:56:56;;;;;;;2.73;2.53;;;21.60;99.90;;;;;;4954649;28;20193;-79
2022/10/30 12:59:33;;;;;;;4.10;2.90;;;21.70;99.90;;;;;;4951807;28;20225;-79
2022/10/30 13:02:12;;;;;;;3.00;2.70;;;21.70;99.90;;;;;;4968539;28;20204;-79
2022/10/30 13:04:43;;;;;;;5.03;4.53;;;21.80;99.90;;;;;;4971058;28;20607;-79